createdAt,value
2022-12-31T00:02:22.501Z,89.10
2022-12-31T00:04:48.984Z,89.47
2022-12-31T00:07:15.457Z,90.24
2022-12-31T00:09:41.887Z,91.66
2022-12-31T00:12:08.282Z,93.34
2022-12-31T00:14:34.677Z,94.78
2022-12-31T00:17:01.139Z,96.18
2022-12-31T00:19:27.577Z,96.37
2022-12-31T00:21:55.084Z,97.65
2022-12-31T00:24:21.505Z,96.90
2022-12-31T00:26:47.884Z,98.02
2022-12-31T00:29:14.267Z,97.97
2022-12-31T00:31:40.958Z,99.40
2022-12-31T00:34:07.513Z,100.00
2022-12-31T00:36:37.267Z,99.77
2022-12-31T00:39:06.037Z,99.44
2022-12-31T00:41:32.932Z,99.30
2022-12-31T00:43:59.598Z,98.55
2022-12-31T00:46:26.223Z,97.14
2022-12-31T00:48:53.506Z,97.54
2022-12-31T00:51:22.930Z,98.20
2022-12-31T00:53:49.862Z,97.99
2022-12-31T00:56:19.409Z,97.88
2022-12-31T00:58:45.886Z,98.06
2022-12-31T01:01:16.455Z,97.85
2022-12-31T01:03:43.148Z,97.06
2022-12-31T01:06:09.923Z,96.10
2022-12-31T01:08:36.798Z,96.33
2022-12-31T01:11:24.645Z,95.95
2022-12-31T01:13:59.270Z,96.88
2022-12-31T01:16:32.977Z,96.70
2022-12-31T01:19:01.954Z,95.05
2022-12-31T01:21:28.963Z,94.81
2022-12-31T01:23:55.416Z,93.73
2022-12-31T01:26:21.882Z,94.60
2022-12-31T01:28:48.311Z,93.70
2022-12-31T01:31:18.758Z,94.40
2022-12-31T01:33:46.243Z,94.34
2022-12-31T01:36:13.934Z,94.13
2022-12-31T01:38:41.387Z,91.65
2022-12-31T01:41:14.463Z,91.09
2022-12-31T01:43:54.350Z,90.17
2022-12-31T01:46:31.395Z,87.82
2022-12-31T01:49:02.908Z,87.59
2022-12-31T01:51:33.366Z,87.03
2022-12-31T01:54:02.132Z,86.54
2022-12-31T01:56:28.632Z,84.59
2022-12-31T01:58:56.858Z,85.33
2022-12-31T02:01:33.345Z,84.19
2022-12-31T02:04:05.201Z,84.81
2022-12-31T02:06:40.703Z,83.90
2022-12-31T02:09:08.262Z,83.33
2022-12-31T02:11:37.903Z,83.75
2022-12-31T02:14:32.133Z,84.68
2022-12-31T02:17:19.926Z,84.06
2022-12-31T02:20:25.061Z,84.48
2022-12-31T02:23:29.274Z,83.44
2022-12-31T02:26:14.466Z,82.34
2022-12-31T02:28:43.824Z,82.23
2022-12-31T02:31:55.129Z,81.67
2022-12-31T02:34:32.558Z,80.95
2022-12-31T02:37:03.090Z,80.65
2022-12-31T02:39:30.922Z,81.27
2022-12-31T02:41:59.683Z,80.02
2022-12-31T02:44:34.859Z,79.54
2022-12-31T02:47:13.643Z,79.39
2022-12-31T02:50:03.378Z,78.73
2022-12-31T02:53:10.747Z,78.36
2022-12-31T02:55:41.265Z,78.31
2022-12-31T02:58:22.878Z,78.52
2022-12-31T03:01:11.736Z,78.16
2022-12-31T03:03:38.819Z,78.66
2022-12-31T03:06:08.401Z,77.48
2022-12-31T03:08:57.904Z,77.66
2022-12-31T03:11:43.256Z,77.16
2022-12-31T03:14:41.736Z,76.22
2022-12-31T03:17:08.198Z,76.40
2022-12-31T03:19:53.360Z,74.27
2022-12-31T03:22:28.612Z,75.01
2022-12-31T03:25:15.545Z,75.90
2022-12-31T03:27:42.144Z,76.34
2022-12-31T03:30:09.204Z,75.71
2022-12-31T03:32:35.654Z,75.77
2022-12-31T03:35:02.055Z,76.25
2022-12-31T03:37:28.450Z,75.69
2022-12-31T03:39:54.850Z,75.39
2022-12-31T03:42:21.266Z,73.53
2022-12-31T03:44:47.658Z,74.38
2022-12-31T03:47:38.224Z,74.88
2022-12-31T03:50:07.150Z,74.23
2022-12-31T03:52:33.661Z,72.69
2022-12-31T03:55:01.770Z,72.88
2022-12-31T03:57:29.260Z,71.71
2022-12-31T03:59:55.719Z,73.30
2022-12-31T04:02:28.599Z,73.94
2022-12-31T04:05:01.028Z,72.95
2022-12-31T04:07:27.626Z,73.18
2022-12-31T04:09:54.104Z,73.52
2022-12-31T04:12:20.561Z,71.83
2022-12-31T04:14:46.957Z,71.99
2022-12-31T04:17:13.435Z,72.46
2022-12-31T04:19:39.856Z,73.24
2022-12-31T04:22:06.598Z,73.39
2022-12-31T04:24:33.050Z,73.36
2022-12-31T04:27:05.322Z,75.21
2022-12-31T04:29:33.607Z,74.79
2022-12-31T04:32:00.196Z,76.51
2022-12-31T04:34:26.825Z,75.93
2022-12-31T04:36:53.308Z,76.45
2022-12-31T04:39:19.723Z,75.45
2022-12-31T04:41:46.122Z,74.84
2022-12-31T04:44:12.577Z,75.67
2022-12-31T04:46:39.032Z,76.04
2022-12-31T04:49:05.529Z,77.04
2022-12-31T04:51:32.013Z,78.57
2022-12-31T04:53:59.280Z,76.94
2022-12-31T04:56:28.149Z,77.74
2022-12-31T04:58:55.256Z,77.98
2022-12-31T05:01:22.206Z,78.35
2022-12-31T05:03:48.995Z,79.65
2022-12-31T05:06:21.228Z,79.93
2022-12-31T05:08:48.308Z,80.65
2022-12-31T05:11:15.603Z,80.24
2022-12-31T05:13:42.471Z,81.82
2022-12-31T05:16:09.871Z,82.75
2022-12-31T05:18:36.711Z,83.34
2022-12-31T05:21:03.516Z,82.98
2022-12-31T05:23:30.132Z,83.05
2022-12-31T05:25:56.949Z,83.02
2022-12-31T05:28:23.358Z,82.85
2022-12-31T05:30:50.727Z,82.66
2022-12-31T05:33:46.359Z,82.77
2022-12-31T05:36:12.878Z,82.93
2022-12-31T05:38:39.255Z,82.88
2022-12-31T05:41:08.083Z,83.46
2022-12-31T05:43:34.946Z,82.95
2022-12-31T05:46:02.787Z,82.75
2022-12-31T05:48:29.342Z,83.12
2022-12-31T05:50:56.181Z,83.57
2022-12-31T05:53:22.864Z,83.63
2022-12-31T05:55:49.323Z,83.75
2022-12-31T05:58:16.201Z,83.83
2022-12-31T06:00:43.470Z,83.18
2022-12-31T06:03:10.169Z,82.95
2022-12-31T06:05:40.924Z,84.13
2022-12-31T06:08:07.383Z,82.84
2022-12-31T06:10:33.817Z,83.06
2022-12-31T06:13:00.256Z,82.65
2022-12-31T06:15:26.824Z,83.01
2022-12-31T06:17:53.228Z,83.15
2022-12-31T06:20:20.681Z,83.41
2022-12-31T06:22:47.094Z,83.32
2022-12-31T06:25:13.557Z,83.16
2022-12-31T06:27:39.981Z,82.37
2022-12-31T06:30:07.252Z,82.93
2022-12-31T06:32:34.932Z,83.57
2022-12-31T06:35:02.425Z,83.45
2022-12-31T06:37:29.013Z,83.83
2022-12-31T06:39:55.392Z,84.85
2022-12-31T06:42:21.809Z,86.55
2022-12-31T06:44:50.257Z,87.42
2022-12-31T06:47:16.659Z,87.20
2022-12-31T06:49:43.024Z,87.41
2022-12-31T06:52:09.464Z,86.53
2022-12-31T06:54:47.150Z,86.26
2022-12-31T06:57:14.417Z,86.36
2022-12-31T06:59:41.201Z,86.95
2022-12-31T07:02:25.366Z,85.44
2022-12-31T07:05:05.131Z,84.83
2022-12-31T07:07:45.491Z,85.21
2022-12-31T07:10:35.304Z,85.96
2022-12-31T07:13:31.097Z,86.67
2022-12-31T07:16:16.491Z,86.12
2022-12-31T07:19:04.870Z,87.48
2022-12-31T07:21:44.198Z,87.33
2022-12-31T07:24:11.634Z,87.55
2022-12-31T07:26:52.556Z,86.65
2022-12-31T07:29:42.260Z,87.12
2022-12-31T07:32:36.004Z,87.64
2022-12-31T07:35:45.115Z,86.48
2022-12-31T07:38:24.940Z,87.00
2022-12-31T07:41:07.258Z,86.52
2022-12-31T07:43:52.363Z,87.22
2022-12-31T07:46:26.627Z,87.08
2022-12-31T07:48:53.336Z,85.16
2022-12-31T07:51:22.213Z,85.00
2022-12-31T07:53:48.614Z,85.94
2022-12-31T07:56:15.042Z,85.41
2022-12-31T07:58:47.518Z,85.62
2022-12-31T08:01:19.874Z,84.29
2022-12-31T08:03:59.876Z,84.80
2022-12-31T08:06:51.155Z,84.70
2022-12-31T08:09:39.448Z,85.06
2022-12-31T08:12:21.524Z,83.88
2022-12-31T08:14:50.042Z,83.73
2022-12-31T08:17:18.837Z,83.36
2022-12-31T08:19:52.893Z,83.66
2022-12-31T08:22:19.384Z,82.40
2022-12-31T08:24:57.915Z,82.91
2022-12-31T08:27:34.737Z,82.04
2022-12-31T08:30:19.360Z,82.59
2022-12-31T08:32:54.864Z,82.27
2022-12-31T08:35:36.502Z,82.69
2022-12-31T08:38:17.315Z,82.05
2022-12-31T08:41:21.306Z,82.52
2022-12-31T08:44:20.474Z,82.02
2022-12-31T08:46:59.914Z,81.26
2022-12-31T08:49:29.125Z,81.51
2022-12-31T08:51:56.065Z,79.53
2022-12-31T08:54:25.237Z,79.92
2022-12-31T08:57:25.034Z,79.58
2022-12-31T09:00:00.567Z,79.10
2022-12-31T09:02:54.917Z,78.98
2022-12-31T09:05:31.185Z,79.02
2022-12-31T09:08:12.783Z,78.97
2022-12-31T09:10:49.608Z,80.25
2022-12-31T09:13:55.662Z,80.46
2022-12-31T09:16:56.279Z,80.06
2022-12-31T09:19:22.701Z,81.13
2022-12-31T09:21:49.326Z,80.12
2022-12-31T09:24:16.490Z,78.36
2022-12-31T09:26:42.946Z,81.35
2022-12-31T09:29:52.085Z,83.57
2022-12-31T09:32:25.789Z,83.63
2022-12-31T09:35:17.084Z,83.57
2022-12-31T09:37:48.446Z,84.31
2022-12-31T09:40:37.098Z,83.87
2022-12-31T09:43:25.456Z,83.26
2022-12-31T09:46:23.114Z,84.36
2022-12-31T09:49:29.003Z,84.10
2022-12-31T09:52:26.588Z,83.43
2022-12-31T09:55:35.216Z,83.01
2022-12-31T09:58:24.743Z,82.96
2022-12-31T10:01:19.735Z,83.19
2022-12-31T10:03:49.029Z,83.26
2022-12-31T10:06:31.065Z,83.15
2022-12-31T10:09:12.745Z,83.33
2022-12-31T10:12:21.757Z,82.03
2022-12-31T10:15:25.852Z,82.30
2022-12-31T10:18:23.279Z,81.28
2022-12-31T10:21:05.011Z,81.29
2022-12-31T10:23:52.432Z,81.96
2022-12-31T10:26:41.526Z,79.19
2022-12-31T10:29:55.024Z,78.33
2022-12-31T10:32:38.731Z,78.00
2022-12-31T10:35:12.164Z,77.67
2022-12-31T10:37:49.625Z,76.93
2022-12-31T10:40:58.141Z,76.00
2022-12-31T10:43:58.485Z,73.30
2022-12-31T10:46:55.417Z,73.37
2022-12-31T10:49:46.661Z,73.76
2022-12-31T10:52:59.797Z,73.05
2022-12-31T10:55:53.151Z,74.58
2022-12-31T10:59:13.981Z,72.32
2022-12-31T11:01:53.166Z,72.80
2022-12-31T11:04:41.645Z,73.36
2022-12-31T11:07:36.443Z,73.90
2022-12-31T11:10:27.561Z,74.14
2022-12-31T11:13:12.225Z,74.90
2022-12-31T11:16:13.175Z,72.92
2022-12-31T11:18:56.037Z,72.64
2022-12-31T11:21:41.976Z,72.86
2022-12-31T11:24:25.352Z,73.35
2022-12-31T11:27:17.091Z,73.80
2022-12-31T11:29:43.668Z,74.40
2022-12-31T11:32:48.361Z,72.90
2022-12-31T11:35:42.292Z,72.74
2022-12-31T11:38:33.474Z,72.20
2022-12-31T11:41:45.554Z,70.07
2022-12-31T11:44:23.889Z,69.53
2022-12-31T11:47:04.313Z,68.74
2022-12-31T11:49:51.555Z,69.02
2022-12-31T11:52:54.939Z,69.46
2022-12-31T11:55:43.062Z,68.79
2022-12-31T11:58:20.373Z,68.77
2022-12-31T12:00:55.916Z,69.52
2022-12-31T12:03:24.624Z,69.72
2022-12-31T12:05:51.525Z,68.32
2022-12-31T12:08:18.117Z,68.29
2022-12-31T12:10:48.864Z,68.23
2022-12-31T12:13:27.769Z,67.89
2022-12-31T12:16:00.287Z,67.52
2022-12-31T12:18:36.132Z,66.23
2022-12-31T12:21:13.584Z,68.53
2022-12-31T12:23:42.557Z,69.11
2022-12-31T12:26:34.942Z,68.66
2022-12-31T12:29:12.886Z,68.71
2022-12-31T12:31:40.876Z,68.30
2022-12-31T12:34:23.176Z,68.04
2022-12-31T12:36:49.984Z,67.16
2022-12-31T12:39:22.488Z,66.79
2022-12-31T12:42:03.485Z,67.51
2022-12-31T12:44:31.121Z,67.22
2022-12-31T12:46:58.660Z,65.87
2022-12-31T12:49:31.360Z,65.96
2022-12-31T12:52:30.882Z,65.79
2022-12-31T12:55:12.628Z,65.06
2022-12-31T12:58:34.634Z,63.52
2022-12-31T13:01:38.889Z,65.66
2022-12-31T13:04:34.061Z,66.43
2022-12-31T13:07:18.749Z,64.83
2022-12-31T13:09:46.246Z,65.48
2022-12-31T13:12:48.916Z,65.45
2022-12-31T13:15:46.010Z,66.12
2022-12-31T13:18:38.696Z,65.63
2022-12-31T13:21:20.214Z,66.22
2022-12-31T13:23:58.510Z,66.72
2022-12-31T13:26:31.745Z,66.16
2022-12-31T13:29:04.220Z,65.19
2022-12-31T13:31:39.582Z,65.91
2022-12-31T13:34:14.449Z,65.57
2022-12-31T13:36:43.514Z,65.18
2022-12-31T13:39:29.188Z,66.22
2022-12-31T13:42:14.768Z,67.00
2022-12-31T13:45:03.382Z,66.94
2022-12-31T13:47:52.433Z,66.64
2022-12-31T13:50:29.693Z,69.42
2022-12-31T13:53:12.923Z,74.84
2022-12-31T13:55:46.250Z,74.51
2022-12-31T13:58:38.495Z,74.26
2022-12-31T14:01:20.758Z,73.18
2022-12-31T14:04:05.044Z,73.85
2022-12-31T14:06:43.570Z,75.57
2022-12-31T14:09:19.553Z,73.77
2022-12-31T14:12:27.960Z,74.41
2022-12-31T14:15:03.791Z,74.79
2022-12-31T14:17:53.086Z,75.36
2022-12-31T14:20:32.501Z,79.28
2022-12-31T14:23:12.337Z,78.73
2022-12-31T14:25:54.737Z,78.02
2022-12-31T14:28:31.061Z,78.67
2022-12-31T14:31:09.396Z,77.16
2022-12-31T14:33:53.504Z,77.25
2022-12-31T14:36:32.246Z,77.18
2022-12-31T14:39:13.093Z,77.53
2022-12-31T14:41:58.059Z,77.20
2022-12-31T14:45:02.288Z,78.44
2022-12-31T14:47:57.590Z,79.05
2022-12-31T14:50:27.081Z,79.89
2022-12-31T14:53:24.662Z,82.70
2022-12-31T14:56:03.058Z,83.53
2022-12-31T14:58:36.019Z,82.36
2022-12-31T15:01:15.087Z,83.36
2022-12-31T15:03:46.498Z,83.63
2022-12-31T15:06:56.943Z,82.96
2022-12-31T15:09:34.826Z,82.77
2022-12-31T15:12:10.842Z,83.73
2022-12-31T15:15:04.554Z,83.90
2022-12-31T15:17:57.034Z,84.67
2022-12-31T15:20:44.381Z,85.91
2022-12-31T15:23:38.194Z,85.70
2022-12-31T15:26:06.839Z,84.77
2022-12-31T15:28:39.877Z,85.72
2022-12-31T15:31:20.765Z,85.07
2022-12-31T15:34:23.645Z,85.76
2022-12-31T15:36:59.956Z,85.96
2022-12-31T15:39:36.341Z,85.76
2022-12-31T15:42:36.878Z,85.27
2022-12-31T15:44:56.814Z,86.55
2022-12-31T15:47:41.826Z,87.03
2022-12-31T15:50:17.342Z,87.82
2022-12-31T15:53:07.110Z,86.56
2022-12-31T15:55:49.654Z,88.59
2022-12-31T15:58:38.470Z,88.97
2022-12-31T16:01:27.852Z,87.29
2022-12-31T16:04:06.980Z,89.40
2022-12-31T16:06:39.230Z,89.58
2022-12-31T16:09:29.985Z,89.12
2022-12-31T16:12:09.943Z,89.76
2022-12-31T16:15:04.957Z,89.36
2022-12-31T16:17:45.240Z,88.65
2022-12-31T16:20:30.379Z,89.84
2022-12-31T16:23:03.284Z,88.75
2022-12-31T16:25:34.200Z,88.22
2022-12-31T16:28:03.426Z,87.73
2022-12-31T16:30:35.900Z,89.56
2022-12-31T16:33:05.816Z,88.04
2022-12-31T16:35:55.478Z,90.36
2022-12-31T16:38:22.072Z,91.04
2022-12-31T16:41:00.744Z,90.58
2022-12-31T16:43:39.811Z,94.32
2022-12-31T16:46:32.028Z,94.49
2022-12-31T16:49:02.977Z,94.12
2022-12-31T16:51:32.478Z,93.61
2022-12-31T16:54:01.318Z,93.59
2022-12-31T16:56:38.182Z,92.44
2022-12-31T16:59:41.713Z,91.95
2022-12-31T17:02:20.373Z,91.22
2022-12-31T17:04:55.720Z,91.33
2022-12-31T17:07:31.964Z,92.69
2022-12-31T17:10:16.527Z,93.40
2022-12-31T17:13:28.739Z,92.83
2022-12-31T17:15:59.266Z,93.56
2022-12-31T17:18:35.993Z,92.24
2022-12-31T17:21:10.806Z,93.48
2022-12-31T17:23:39.737Z,92.02
2022-12-31T17:26:25.682Z,93.28
2022-12-31T17:28:55.192Z,93.13
2022-12-31T17:31:33.072Z,93.87
2022-12-31T17:34:14.861Z,94.78
2022-12-31T17:36:57.014Z,93.12
2022-12-31T17:39:24.852Z,93.67
2022-12-31T17:41:55.123Z,94.04
2022-12-31T17:44:25.713Z,94.33
2022-12-31T17:46:52.977Z,95.09
2022-12-31T17:49:27.164Z,94.37
2022-12-31T17:51:53.679Z,96.48
2022-12-31T17:54:20.107Z,95.90
2022-12-31T17:56:48.066Z,96.12
2022-12-31T17:59:18.104Z,95.06
2022-12-31T18:01:44.765Z,95.64
2022-12-31T18:04:17.289Z,94.66
2022-12-31T18:06:44.136Z,96.36
2022-12-31T18:09:10.704Z,95.98
2022-12-31T18:11:39.960Z,96.06
2022-12-31T18:14:07.182Z,95.85
2022-12-31T18:16:34.132Z,97.77
2022-12-31T18:19:01.491Z,98.60
2022-12-31T18:21:34.314Z,97.29
2022-12-31T18:26:34.545Z,97.91
2022-12-31T18:29:19.911Z,97.78
2022-12-31T18:31:48.977Z,98.20
2022-12-31T18:34:17.073Z,100.00
2022-12-31T18:36:44.121Z,100.00
2022-12-31T18:39:23.817Z,100.00
2022-12-31T18:41:50.284Z,100.00
2022-12-31T18:44:17.452Z,100.00
2022-12-31T18:46:43.927Z,100.00
2022-12-31T18:49:10.316Z,100.00
2022-12-31T18:51:36.962Z,100.00
2022-12-31T18:54:04.768Z,100.00
2022-12-31T18:56:31.407Z,100.00
2022-12-31T18:58:59.585Z,100.00
2022-12-31T19:01:26.229Z,100.00
2022-12-31T19:04:18.710Z,100.00
2022-12-31T19:06:48.711Z,100.00
2022-12-31T19:09:43.350Z,100.00
2022-12-31T19:12:02.501Z,100.00
2022-12-31T19:14:45.419Z,100.00
2022-12-31T19:17:11.919Z,100.00
2022-12-31T19:19:38.327Z,100.00
2022-12-31T19:22:04.739Z,100.00
2022-12-31T19:24:43.414Z,100.00
2022-12-31T19:27:09.876Z,100.00
2022-12-31T19:29:36.384Z,100.00
2022-12-31T19:32:02.875Z,100.00
2022-12-31T19:34:32.408Z,100.00
2022-12-31T19:37:01.944Z,100.00
2022-12-31T19:39:28.424Z,100.00
2022-12-31T19:41:59.170Z,100.00
2022-12-31T19:44:26.616Z,100.00
2022-12-31T19:46:55.079Z,100.00
2022-12-31T19:49:21.601Z,99.64
2022-12-31T19:51:50.113Z,99.88
2022-12-31T19:54:16.501Z,98.59
2022-12-31T19:56:42.915Z,100.00
2022-12-31T19:59:10.537Z,100.00
2022-12-31T20:01:37.642Z,98.89
2022-12-31T20:04:04.399Z,100.00
2022-12-31T20:06:30.819Z,100.00
2022-12-31T20:08:57.257Z,100.00
2022-12-31T20:11:24.121Z,100.00
2022-12-31T20:13:53.578Z,100.00
2022-12-31T20:16:22.741Z,100.00
2022-12-31T20:18:52.283Z,100.00
2022-12-31T20:21:22.260Z,100.00
2022-12-31T20:23:50.176Z,100.00
2022-12-31T20:26:17.934Z,100.00
2022-12-31T20:28:47.151Z,100.00
2022-12-31T20:31:16.807Z,100.00
2022-12-31T20:33:47.394Z,100.00
2022-12-31T20:36:17.166Z,100.00
2022-12-31T20:38:43.966Z,100.00
2022-12-31T20:41:15.299Z,100.00
2022-12-31T20:43:42.207Z,100.00
2022-12-31T20:46:15.655Z,100.00
2022-12-31T20:48:43.740Z,100.00
2022-12-31T20:51:13.818Z,100.00
2022-12-31T20:53:47.953Z,100.00
2022-12-31T20:56:16.006Z,100.00
2022-12-31T20:58:42.644Z,100.00
2022-12-31T21:01:10.301Z,100.00
2022-12-31T21:06:28.944Z,100.00
2022-12-31T21:09:00.285Z,100.00
2022-12-31T21:11:45.497Z,100.00
2022-12-31T21:14:11.962Z,100.00
2022-12-31T21:16:38.724Z,100.00
2022-12-31T21:19:07.231Z,100.00
2022-12-31T21:21:39.865Z,100.00
2022-12-31T21:24:06.591Z,100.00
2022-12-31T21:26:37.158Z,100.00
2022-12-31T21:29:03.596Z,100.00
2022-12-31T21:31:30.126Z,100.00
2022-12-31T21:33:56.755Z,100.00
2022-12-31T21:36:23.414Z,100.00
2022-12-31T21:38:49.844Z,100.00
2022-12-31T21:41:35.319Z,100.00
2022-12-31T21:44:03.154Z,100.00
2022-12-31T21:46:29.774Z,100.00
2022-12-31T21:49:02.658Z,100.00
2022-12-31T21:51:29.524Z,100.00
2022-12-31T21:53:56.436Z,100.00
2022-12-31T21:56:23.371Z,100.00
2022-12-31T21:59:17.215Z,100.00
2022-12-31T22:02:02.391Z,100.00
2022-12-31T22:05:00.783Z,100.00
2022-12-31T22:07:15.458Z,100.00
2022-12-31T22:09:41.907Z,100.00
2022-12-31T22:12:08.359Z,100.00
2022-12-31T22:14:34.922Z,100.00
2022-12-31T22:17:01.297Z,100.00
2022-12-31T22:19:27.805Z,100.00
2022-12-31T22:21:54.189Z,100.00
2022-12-31T22:24:20.602Z,100.00
2022-12-31T22:26:47.107Z,100.00
2022-12-31T22:29:13.880Z,100.00
2022-12-31T22:31:40.497Z,100.00
2022-12-31T22:34:07.129Z,100.00
2022-12-31T22:36:34.822Z,100.00
2022-12-31T22:39:01.385Z,100.00
2022-12-31T22:41:28.200Z,100.00
2022-12-31T22:44:03.085Z,100.00
2022-12-31T22:46:31.826Z,100.00
2022-12-31T22:48:59.617Z,100.00
2022-12-31T22:51:54.739Z,100.00
2022-12-31T22:54:13.310Z,100.00
2022-12-31T22:56:39.978Z,100.00
2022-12-31T22:59:06.385Z,100.00
2022-12-31T23:01:34.228Z,100.00
2022-12-31T23:04:00.988Z,100.00
2022-12-31T23:06:27.474Z,100.00
2022-12-31T23:09:12.637Z,100.00
2022-12-31T23:11:39.785Z,100.00
2022-12-31T23:14:25.793Z,100.00
2022-12-31T23:17:31.542Z,100.00
2022-12-31T23:20:15.836Z,100.00
2022-12-31T23:23:00.747Z,100.00
2022-12-31T23:25:45.001Z,100.00
2022-12-31T23:28:14.546Z,100.00
2022-12-31T23:30:41.532Z,100.00
2022-12-31T23:33:14.310Z,100.00
2022-12-31T23:35:40.784Z,100.00
2022-12-31T23:38:07.192Z,100.00
2022-12-31T23:40:36.615Z,100.00
2022-12-31T23:43:05.797Z,100.00
2022-12-31T23:45:33.701Z,100.00
2022-12-31T23:48:00.240Z,100.00
2022-12-31T23:50:27.053Z,100.00
2022-12-31T23:52:53.888Z,100.00
2022-12-31T23:55:20.726Z,100.00
2022-12-31T23:57:47.253Z,100.00
